createdAt,value
2019-03-26T00:06:19.691Z,3.93
2019-03-26T00:16:20.408Z,3.43
2019-03-26T00:26:21.210Z,2.37
2019-03-26T00:36:21.810Z,3.17
2019-03-26T00:46:24.544Z,2.83
2019-03-26T00:56:25.324Z,4.30
2019-03-26T01:06:26.262Z,3.67
2019-03-26T01:16:26.882Z,4.30
2019-03-26T01:26:27.668Z,4.60
2019-03-26T01:36:28.295Z,3.57
2019-03-26T01:46:28.970Z,3.40
2019-03-26T01:56:29.793Z,3.37
2019-03-26T02:06:30.631Z,2.80
2019-03-26T02:16:31.410Z,2.80
2019-03-26T02:26:32.300Z,2.63
2019-03-26T02:36:32.949Z,2.20
2019-03-26T02:46:34.640Z,2.63
2019-03-26T02:56:38.302Z,2.83
2019-03-26T03:06:39.048Z,2.57
2019-03-26T03:16:39.836Z,1.90
2019-03-26T03:26:40.619Z,2.23
2019-03-26T03:36:41.268Z,2.30
2019-03-26T03:46:43.806Z,2.90
2019-03-26T03:56:47.697Z,1.90
2019-03-26T04:06:48.412Z,2.40
2019-03-26T04:16:50.055Z,3.30
2019-03-26T04:26:51.810Z,5.73
2019-03-26T04:36:52.488Z,8.43
2019-03-26T04:46:53.330Z,10.13
2019-03-26T04:56:56.011Z,11.67
2019-03-26T05:06:56.813Z,14.30
2019-03-26T05:16:57.507Z,14.00
2019-03-26T05:26:58.213Z,15.73
2019-03-26T05:36:58.871Z,14.33
2019-03-26T05:47:01.667Z,14.10
2019-03-26T05:57:02.371Z,12.97
2019-03-26T06:07:05.012Z,10.93
2019-03-26T06:17:06.760Z,11.13
2019-03-26T06:27:07.545Z,11.93
2019-03-26T06:37:17.906Z,12.47
2019-03-26T06:47:10.915Z,12.57
2019-03-26T06:57:11.716Z,11.30
2019-03-26T07:07:12.519Z,9.87
2019-03-26T07:17:13.235Z,6.63
2019-03-26T07:27:14.010Z,9.87
2019-03-26T07:37:14.918Z,10.10
2019-03-26T07:47:15.721Z,8.37
2019-03-26T07:57:17.506Z,9.47
2019-03-26T08:07:18.435Z,15.10
2019-03-26T08:17:22.179Z,17.00
2019-03-26T08:27:22.849Z,14.30
2019-03-26T08:37:24.575Z,15.37
2019-03-26T08:47:25.350Z,15.67
2019-03-26T08:57:26.159Z,17.43
2019-03-26T09:07:26.886Z,15.23
2019-03-26T09:17:27.639Z,13.20
2019-03-26T09:27:28.370Z,13.60
2019-03-26T09:37:29.090Z,13.50
2019-03-26T09:47:30.892Z,13.00
2019-03-26T09:57:31.675Z,13.70
2019-03-26T10:07:32.466Z,13.70
2019-03-26T10:17:35.005Z,15.07
2019-03-26T10:27:48.755Z,13.87
2019-03-26T10:37:49.543Z,14.30
2019-03-26T10:47:50.383Z,13.33
2019-03-26T10:57:51.147Z,10.60
2019-03-26T11:07:51.843Z,11.17
2019-03-26T11:17:52.743Z,10.60
2019-03-26T11:27:55.451Z,8.80
2019-03-26T11:37:56.216Z,8.33
2019-03-26T11:47:56.980Z,7.90
2019-03-26T11:57:57.772Z,4.43
2019-03-26T12:07:59.519Z,3.60
2019-03-26T12:18:02.472Z,2.60
2019-03-26T12:28:03.178Z,2.30
2019-03-26T12:38:14.155Z,1.83
2019-03-26T12:48:14.839Z,1.70
2019-03-26T12:58:15.576Z,1.40
2019-03-26T13:08:16.394Z,1.43
2019-03-26T13:18:21.161Z,2.17
2019-03-26T13:28:22.659Z,3.63
2019-03-26T13:38:29.412Z,2.30
2019-03-26T13:48:32.517Z,2.60
2019-03-26T13:58:45.482Z,4.70
2019-03-26T14:08:46.351Z,5.23
2019-03-26T14:18:47.031Z,4.80
2019-03-26T14:28:47.672Z,5.70
2019-03-26T14:38:50.416Z,7.97
2019-03-26T14:48:51.043Z,6.70
2019-03-26T14:58:54.833Z,8.13
2019-03-26T15:08:55.536Z,9.50
2019-03-26T15:18:56.268Z,5.97
2019-03-26T15:28:57.018Z,6.10
2019-03-26T15:39:05.811Z,6.93
2019-03-26T15:49:06.646Z,6.80
2019-03-26T15:59:07.377Z,6.87
2019-03-26T16:09:08.280Z,6.10
2019-03-26T16:19:08.895Z,5.33
2019-03-26T16:29:09.749Z,7.33
2019-03-26T16:39:10.496Z,7.07
2019-03-26T16:49:11.306Z,7.97
2019-03-26T16:59:12.020Z,6.90
2019-03-26T17:09:13.712Z,9.80
2019-03-26T17:19:14.462Z,9.63
2019-03-26T17:29:16.252Z,11.13
2019-03-26T17:39:17.193Z,11.57
2019-03-26T17:49:18.881Z,10.57
2019-03-26T17:59:19.580Z,16.93
2019-03-26T18:09:20.492Z,9.27
2019-03-26T18:19:22.171Z,9.70
2019-03-26T18:29:23.867Z,8.27
2019-03-26T18:39:24.734Z,8.83
2019-03-26T18:49:25.419Z,7.37
2019-03-26T18:59:33.006Z,7.47
2019-03-26T19:09:33.713Z,8.97
2019-03-26T19:19:34.456Z,8.73
2019-03-26T19:29:37.182Z,8.73
2019-03-26T19:39:37.877Z,8.40
2019-03-26T19:49:38.635Z,8.03
2019-03-26T19:59:39.409Z,8.13
2019-03-26T20:09:41.318Z,8.03
2019-03-26T20:19:42.104Z,7.40
2019-03-26T20:29:54.797Z,9.47
2019-03-26T20:39:55.619Z,9.20
2019-03-26T20:49:59.442Z,8.70
2019-03-26T21:00:00.578Z,9.00
2019-03-26T21:10:02.186Z,8.50
2019-03-26T21:20:06.391Z,9.30
2019-03-26T21:30:13.975Z,9.53
2019-03-26T21:40:16.101Z,9.17
2019-03-26T21:50:17.792Z,9.10
2019-03-26T22:00:18.592Z,9.17
2019-03-26T22:10:20.434Z,9.07
2019-03-26T22:20:21.096Z,10.07
2019-03-26T22:30:22.088Z,8.90
2019-03-26T22:40:25.928Z,9.40
2019-03-26T22:50:26.665Z,9.13
2019-03-26T23:00:28.431Z,9.10
2019-03-26T23:10:29.299Z,8.63
2019-03-26T23:20:30.056Z,8.83
2019-03-26T23:30:30.848Z,9.87
2019-03-26T23:40:31.563Z,10.57
2019-03-26T23:50:32.836Z,10.57
